createdAt,value
2022-08-19T00:00:28.166Z,70.1875
2022-08-19T00:02:24.973Z,70.19433594
2022-08-19T00:03:26.741Z,70.33105469
2022-08-19T00:04:22.714Z,70.39746094
2022-08-19T00:05:26.438Z,70.27832031
2022-08-19T00:07:26.391Z,70.57226563
2022-08-19T00:08:26.961Z,70.52050781
2022-08-19T00:09:22.857Z,70.56640625
2022-08-19T00:10:22.814Z,70.47167969
2022-08-19T00:12:29.964Z,70.65136719
2022-08-19T00:13:25.932Z,70.90039063
2022-08-19T00:14:27.750Z,70.984375
2022-08-19T00:15:23.247Z,70.67285156
2022-08-19T00:16:26.585Z,70.91503906
2022-08-19T00:17:21.735Z,70.91503906
2022-08-19T00:18:22.151Z,70.87792969
2022-08-19T00:19:17.509Z,70.74902344
2022-08-19T00:20:17.067Z,70.67871094
2022-08-19T00:22:12.875Z,70.73339844
2022-08-19T00:23:09.105Z,70.890625
2022-08-19T00:24:11.992Z,70.95996094
2022-08-19T00:25:05.393Z,71.09472656
2022-08-19T00:27:25.604Z,70.82324219
2022-08-19T00:27:26.098Z,70.82324219
2022-08-19T00:27:26.206Z,70.82324219
2022-08-19T00:28:18.053Z,70.91796875
2022-08-19T00:29:13.481Z,70.77734375
2022-08-19T00:30:15.897Z,70.73144531
2022-08-19T00:32:24.295Z,70.86816406
2022-08-19T00:33:22.689Z,70.85351563
2022-08-19T00:34:19.151Z,70.73730469
2022-08-19T00:36:46.210Z,70.42480469
2022-08-19T00:37:46.610Z,69.99121094
2022-08-19T00:38:50.543Z,69.82324219
2022-08-19T00:39:49.156Z,69.90917969
2022-08-19T00:41:52.741Z,70.19433594
2022-08-19T00:42:53.324Z,70.40625
2022-08-19T00:43:47.887Z,70.47949219
2022-08-19T00:44:47.122Z,70.65722656
2022-08-19T00:46:44.522Z,70.90136719
2022-08-19T00:47:39.365Z,70.91796875
2022-08-19T00:48:41.157Z,71.14746094
2022-08-19T00:49:33.245Z,71.10058594
2022-08-19T00:50:51.953Z,71.03125
2022-08-19T00:50:52.094Z,71.03125
2022-08-19T00:52:38.907Z,70.89941406
2022-08-19T00:53:40.745Z,71.16015625
2022-08-19T00:54:39.865Z,71.296875
2022-08-19T00:56:52.210Z,71.23339844
2022-08-19T00:57:52.726Z,71.15136719
2022-08-19T00:58:47.126Z,71.21777344
2022-08-19T00:59:58.739Z,71.16601563
2022-08-19T01:00:01.079Z,71.16601563
2022-08-19T01:00:02.671Z,71.16601563
2022-08-19T01:00:48.499Z,71.26367188
2022-08-19T01:01:43.814Z,71.17773438
2022-08-19T01:02:46.983Z,71.00585938
2022-08-19T01:03:57.127Z,71.03710938
2022-08-19T01:03:58.098Z,71.03710938
2022-08-19T01:03:58.185Z,71.03710938
2022-08-19T01:04:44.834Z,71.15136719
2022-08-19T01:05:39.565Z,70.91796875
2022-08-19T01:07:38.495Z,71.16601563
2022-08-19T01:08:44.071Z,71.18457031
2022-08-19T01:09:39.253Z,71.28222656
2022-08-19T01:10:38.881Z,71.22460938
2022-08-19T01:11:38.993Z,71.625
2022-08-19T01:12:40.641Z,71.58496094
2022-08-19T01:13:48.993Z,71.58886719
2022-08-19T01:13:48.993Z,71.58886719
2022-08-19T01:13:49.830Z,71.58886719
2022-08-19T01:15:32.130Z,71.58203125
2022-08-19T01:16:57.996Z,70.76171875
2022-08-19T01:18:01.264Z,70.64746094
2022-08-19T01:19:04.925Z,70.81445313
2022-08-19T01:20:02.137Z,70.78515625
2022-08-19T01:21:04.103Z,71.03710938
2022-08-19T01:21:56.660Z,71.30371094
2022-08-19T01:22:57.985Z,71.29980469
2022-08-19T01:24:00.935Z,71.36230469
2022-08-19T01:25:02.121Z,71.4140625
2022-08-19T01:26:59.400Z,71.62792969
2022-08-19T01:28:02.131Z,71.61132813
2022-08-19T01:28:11.171Z,71.61132813
2022-08-19T01:28:11.189Z,71.61132813
2022-08-19T01:28:59.680Z,71.56933594
2022-08-19T01:29:58.711Z,71.60644531
2022-08-19T01:31:55.239Z,71.67675781
2022-08-19T01:32:50.616Z,71.765625
2022-08-19T01:33:54.867Z,71.74902344
2022-08-19T01:34:56.702Z,71.95996094
2022-08-19T01:36:03.350Z,71.87402344
2022-08-19T01:37:01.211Z,71.84863281
2022-08-19T01:38:01.892Z,71.75195313
2022-08-19T01:39:04.497Z,71.85058594
2022-08-19T01:40:09.418Z,71.83789063
2022-08-19T01:42:00.078Z,71.828125
2022-08-19T01:42:55.693Z,71.90820313
2022-08-19T01:44:09.852Z,72.10058594
2022-08-19T01:44:13.280Z,72.10058594
2022-08-19T01:44:54.901Z,72.09277344
2022-08-19T01:46:49.440Z,71.87109375
2022-08-19T01:47:55.324Z,72.02734375
2022-08-19T01:48:01.277Z,72.02734375
2022-08-19T01:48:01.512Z,72.02734375
2022-08-19T01:48:47.627Z,71.95996094
2022-08-19T01:49:44.010Z,71.73632813
2022-08-19T01:50:41.968Z,71.5859375
2022-08-19T01:52:37.920Z,71.88574219
2022-08-19T01:53:40.385Z,71.68652344
2022-08-19T01:54:32.948Z,71.98144531
2022-08-19T01:55:34.944Z,71.99023438
2022-08-19T01:56:29.863Z,72.01464844
2022-08-19T01:57:34.573Z,72.20605469
2022-08-19T01:59:20.574Z,72.14355469
2022-08-19T02:00:00.892Z,72.09179688
2022-08-19T02:02:05.393Z,71.87695313
2022-08-19T02:03:04.352Z,71.828125
2022-08-19T02:04:02.742Z,71.75195313
2022-08-19T02:05:03.742Z,72.23925781
2022-08-19T02:06:58.773Z,72.39648438
2022-08-19T02:07:59.051Z,72.35351563
2022-08-19T02:08:58.211Z,72.74023438
2022-08-19T02:10:00.218Z,72.65527344
2022-08-19T02:10:58.362Z,72.65917969
2022-08-19T02:11:53.589Z,72.36328125
2022-08-19T02:12:57.899Z,72.35058594
2022-08-19T02:13:55.826Z,72.21289063
2022-08-19T02:14:55.602Z,72.31445313
2022-08-19T02:15:51.867Z,72.29199219
2022-08-19T02:16:54.406Z,72.29199219
2022-08-19T02:17:49.631Z,72.37890625
2022-08-19T02:18:49.883Z,72.33203125
2022-08-19T02:19:46.339Z,72.45605469
2022-08-19T02:20:50.126Z,72.68359375
2022-08-19T02:21:44.357Z,72.53613281
2022-08-19T02:22:41.974Z,72.53320313
2022-08-19T02:23:45.412Z,72.82519531
2022-08-19T02:24:40.551Z,72.79785156
2022-08-19T02:25:45.421Z,72.671875
2022-08-19T02:27:47.457Z,72.62597656
2022-08-19T02:28:46.533Z,72.65625
2022-08-19T02:29:44.886Z,72.75878906
2022-08-19T02:30:49.238Z,72.63769531
2022-08-19T02:31:41.694Z,72.73242188
2022-08-19T02:32:48.697Z,72.68359375
2022-08-19T02:33:41.252Z,72.73925781
2022-08-19T02:35:14.210Z,72.71679688
2022-08-19T02:36:58.756Z,72.3515625
2022-08-19T02:37:59.297Z,72.453125
2022-08-19T02:39:03.486Z,72.43066406
2022-08-19T02:40:12.388Z,72.484375
2022-08-19T02:40:12.676Z,72.484375
2022-08-19T02:41:04.614Z,72.44140625
2022-08-19T02:42:07.306Z,72.1328125
2022-08-19T02:43:09.788Z,72.41699219
2022-08-19T02:44:29.050Z,72.3203125
2022-08-19T02:44:30.529Z,72.3203125
2022-08-19T02:44:30.561Z,72.3203125
2022-08-19T02:44:41.598Z,72.41308594
2022-08-19T02:45:40.514Z,72.28320313
2022-08-19T02:46:36.090Z,72.31054688
2022-08-19T02:47:40.243Z,72.23828125
2022-08-19T02:48:35.632Z,72.58886719
2022-08-19T02:49:36.725Z,72.44726563
2022-08-19T02:50:34.889Z,72.65039063
2022-08-19T02:51:38.628Z,72.75097656
2022-08-19T02:52:32.945Z,72.6328125
2022-08-19T02:53:31.953Z,72.73339844
2022-08-19T02:54:30.326Z,72.82324219
2022-08-19T02:55:31.725Z,72.69335938
2022-08-19T02:55:46.171Z,72.69335938
2022-08-19T02:55:46.315Z,72.69335938
2022-08-19T02:56:35.260Z,73.04394531
2022-08-19T02:57:29.952Z,72.75195313
2022-08-19T02:58:33.904Z,72.84375
2022-08-19T02:59:28.176Z,72.75097656
2022-08-19T03:00:30.337Z,72.49902344
2022-08-19T03:01:23.111Z,72.59179688
2022-08-19T03:02:32.371Z,72.65722656
2022-08-19T03:03:27.559Z,72.640625
2022-08-19T03:04:33.432Z,72.86621094
2022-08-19T03:05:46.854Z,72.60351563
2022-08-19T03:05:48.101Z,72.60351563
2022-08-19T03:05:48.382Z,72.60351563
2022-08-19T03:06:32.428Z,72.69042969
2022-08-19T03:07:29.991Z,72.51855469
2022-08-19T03:08:32.689Z,72.73632813
2022-08-19T03:09:28.752Z,72.70214844
2022-08-19T03:10:31.738Z,72.44824219
2022-08-19T03:12:27.493Z,72.65136719
2022-08-19T03:13:25.516Z,72.83398438
2022-08-19T03:14:25.739Z,72.85351563
2022-08-19T03:15:21.044Z,72.75878906
2022-08-19T03:17:22.811Z,72.41210938
2022-08-19T03:18:08.794Z,71.99511719
2022-08-19T03:19:06.570Z,72.01074219
2022-08-19T03:20:08.263Z,72.31542969
2022-08-19T03:22:02.885Z,72.57226563
2022-08-19T03:22:59.464Z,72.55273438
2022-08-19T03:23:59.812Z,72.67480469
2022-08-19T03:25:06.479Z,72.70605469
2022-08-19T03:27:08.152Z,72.8203125
2022-08-19T03:28:06.206Z,72.88476563
2022-08-19T03:29:02.522Z,72.9765625
2022-08-19T03:30:03.214Z,73.02929688
2022-08-19T03:30:59.858Z,72.92773438
2022-08-19T03:32:00.644Z,73.04199219
2022-08-19T03:32:57.348Z,73.0625
2022-08-19T03:33:54.971Z,73.09375
2022-08-19T03:34:49.417Z,73.26464844
2022-08-19T03:35:48.797Z,73.25390625
2022-08-19T03:37:52.893Z,73.14453125
2022-08-19T03:38:47.007Z,73.20996094
2022-08-19T03:40:48.883Z,73.31542969
2022-08-19T03:41:48.784Z,73.11230469
2022-08-19T03:42:49.553Z,73.28320313
2022-08-19T03:43:45.802Z,73.21386719
2022-08-19T03:44:44.675Z,73.3359375
2022-08-19T03:45:39.933Z,73.359375
2022-08-19T03:47:40.394Z,73.52832031
2022-08-19T03:48:32.970Z,73.45117188
2022-08-19T03:49:33.639Z,73.38378906
2022-08-19T03:50:30.342Z,72.99316406
2022-08-19T03:51:31.711Z,73.32617188
2022-08-19T03:52:26.924Z,73.41601563
2022-08-19T03:53:25.526Z,73.40039063
2022-08-19T03:54:24.474Z,73.52636719
2022-08-19T03:55:20.006Z,73.43164063
2022-08-19T03:59:22.413Z,72.56738281
2022-08-19T04:00:13.529Z,72.34277344
2022-08-19T04:00:13.805Z,72.34277344
2022-08-19T04:01:07.479Z,72.36035156
2022-08-19T04:02:04.706Z,72.29199219
2022-08-19T04:03:12.460Z,72.38867188
2022-08-19T04:04:07.853Z,72.66796875
2022-08-19T04:05:08.535Z,72.72949219
2022-08-19T04:07:06.930Z,73.07421875
2022-08-19T04:08:13.777Z,73.18554688
2022-08-19T04:09:09.881Z,73.20410156
2022-08-19T04:10:05.026Z,73.10058594
2022-08-19T04:11:04.345Z,73.17089844
2022-08-19T04:12:00.696Z,73.29394531
2022-08-19T04:13:06.637Z,73.17675781
2022-08-19T04:14:04.800Z,73.16015625
2022-08-19T04:15:09.919Z,73.26953125
2022-08-19T04:16:02.877Z,73.35058594
2022-08-19T04:17:00.802Z,73.42773438
2022-08-19T04:18:00.269Z,73.41210938
2022-08-19T04:18:56.889Z,73.61523438
2022-08-19T04:19:59.847Z,73.65625
2022-08-19T04:20:52.645Z,73.56738281
2022-08-19T04:21:54.365Z,73.5234375
2022-08-19T04:22:46.791Z,73.64746094
2022-08-19T04:23:45.942Z,73.55664063
2022-08-19T04:24:45.485Z,73.67871094
2022-08-19T04:25:45.756Z,73.46191406
2022-08-19T04:27:42.388Z,73.81640625
2022-08-19T04:28:45.300Z,73.79296875
2022-08-19T04:29:38.803Z,73.80078125
2022-08-19T04:30:41.185Z,73.65429688
2022-08-19T04:32:24.612Z,73.58789063
2022-08-19T04:33:04.433Z,73.52832031
2022-08-19T04:34:01.450Z,73.29199219
2022-08-19T04:35:16.787Z,73.26953125
2022-08-19T04:35:16.823Z,73.26953125
2022-08-19T04:35:17.527Z,73.26953125
2022-08-19T04:36:00.332Z,73.24804688
2022-08-19T04:38:00.333Z,73.13964844
2022-08-19T04:38:56.677Z,73.15527344
2022-08-19T04:39:58.713Z,73.22070313
2022-08-19T04:40:02.421Z,73.22070313
2022-08-19T04:40:56.611Z,73.36816406
2022-08-19T04:42:52.256Z,73.38964844
2022-08-19T04:43:47.261Z,73.31738281
2022-08-19T04:44:49.036Z,73.57617188
2022-08-19T04:45:44.184Z,73.2890625
2022-08-19T04:46:51.152Z,73.40527344
2022-08-19T04:46:51.481Z,73.40527344
2022-08-19T04:47:48.230Z,73.30078125
2022-08-19T04:47:58.292Z,73.30078125
2022-08-19T04:47:58.754Z,73.30078125
2022-08-19T04:48:49.199Z,73.53808594
2022-08-19T04:48:49.405Z,73.53808594
2022-08-19T04:48:49.732Z,73.53808594
2022-08-19T04:49:39.963Z,73.01367188
2022-08-19T04:50:34.441Z,72.640625
2022-08-19T04:51:36.353Z,72.87402344
2022-08-19T04:52:31.212Z,73.01660156
2022-08-19T04:53:34.675Z,73.07128906
2022-08-19T04:53:38.034Z,73.07128906
2022-08-19T04:54:37.687Z,73.20507813
2022-08-19T04:54:39.387Z,73.20507813
2022-08-19T04:55:27.723Z,73.28515625
2022-08-19T04:56:22.941Z,73.234375
2022-08-19T04:57:26.145Z,73.265625
2022-08-19T04:58:18.674Z,73.25
2022-08-19T04:59:18.706Z,73.359375
2022-08-19T05:00:14.013Z,73.47949219
2022-08-19T05:02:08.675Z,73.60253906
2022-08-19T05:03:07.733Z,73.81640625
2022-08-19T05:04:02.411Z,73.94921875
2022-08-19T05:05:02.131Z,74.06054688
2022-08-19T05:05:57.349Z,74.17578125
2022-08-19T05:07:52.954Z,74.28515625
2022-08-19T05:08:55.250Z,74.12402344
2022-08-19T05:09:57.984Z,74.03027344
2022-08-19T05:09:58.621Z,74.03027344
2022-08-19T05:09:59.210Z,74.03027344
2022-08-19T05:11:48.024Z,73.68652344
2022-08-19T05:12:36.149Z,73.66894531
2022-08-19T05:13:35.291Z,73.53125
2022-08-19T05:14:36.828Z,73.8125
2022-08-19T05:15:36.201Z,73.85449219
2022-08-19T05:16:37.238Z,74.16113281
2022-08-19T05:17:38.342Z,74.13378906
2022-08-19T05:17:39.369Z,74.13378906
2022-08-19T05:18:34.958Z,74.28417969
2022-08-19T05:19:33.630Z,74.51464844
2022-08-19T05:20:36.639Z,74.546875
2022-08-19T05:21:35.323Z,74.42285156
2022-08-19T05:22:40.868Z,74.41894531
2022-08-19T05:23:35.432Z,74.43164063
2022-08-19T05:24:51.424Z,74.80761719
2022-08-19T05:25:09.287Z,74.80761719
2022-08-19T05:25:11.209Z,74.80761719
2022-08-19T05:25:40.790Z,74.40136719
2022-08-19T05:26:37.135Z,74.77929688
2022-08-19T05:27:39.337Z,74.55078125
2022-08-19T05:28:35.697Z,74.68847656
2022-08-19T05:29:36.777Z,74.87988281
2022-08-19T05:30:46.483Z,75.15234375
2022-08-19T05:30:47.172Z,75.15234375
2022-08-19T05:30:47.445Z,75.15234375
2022-08-19T05:31:34.827Z,75.03320313
2022-08-19T05:32:35.371Z,74.98046875
2022-08-19T05:33:32.181Z,75.15332031
2022-08-19T05:34:32.733Z,75.1171875
2022-08-19T05:35:30.055Z,75.31054688
2022-08-19T05:36:33.596Z,75.34960938
2022-08-19T05:37:30.261Z,75.41503906
2022-08-19T05:38:33.752Z,75.57324219
2022-08-19T05:39:27.975Z,75.72265625
2022-08-19T05:40:30.211Z,75.48632813
2022-08-19T05:41:27.913Z,75.5625
2022-08-19T05:42:32.671Z,75.56152344
2022-08-19T05:43:29.407Z,75.68261719
2022-08-19T05:44:33.514Z,75.69238281
2022-08-19T05:45:29.974Z,75.80175781
2022-08-19T05:47:27.704Z,75.67675781
2022-08-19T05:48:31.541Z,75.84667969
2022-08-19T05:49:35.326Z,76.09472656
2022-08-19T05:50:29.723Z,76.11816406
2022-08-19T05:51:33.348Z,75.92773438
2022-08-19T05:52:27.793Z,76.16699219
2022-08-19T05:53:33.558Z,76.05371094
2022-08-19T05:54:29.223Z,75.9609375
2022-08-19T05:55:33.262Z,75.99707031
2022-08-19T05:57:35.029Z,75.59960938
2022-08-19T05:59:20.031Z,75.76855469
2022-08-19T05:59:59.350Z,75.63867188
2022-08-19T06:00:57.470Z,75.30175781
2022-08-19T06:02:53.055Z,75.15429688
2022-08-19T06:03:52.982Z,75.16503906
2022-08-19T06:04:48.379Z,75.51757813
2022-08-19T06:05:52.123Z,75.31152344
2022-08-19T06:07:43.237Z,75.52050781
2022-08-19T06:08:38.030Z,75.44042969
2022-08-19T06:09:37.656Z,75.55566406
2022-08-19T06:10:32.987Z,75.55371094
2022-08-19T06:12:27.345Z,75.52050781
2022-08-19T06:13:29.033Z,75.61035156
2022-08-19T06:14:27.790Z,75.578125
2022-08-19T06:15:25.694Z,75.68554688
2022-08-19T06:16:25.039Z,75.32519531
2022-08-19T06:17:21.802Z,75.18945313
2022-08-19T06:18:23.913Z,75.14746094
2022-08-19T06:19:16.565Z,75.01367188
2022-08-19T06:20:15.887Z,75.39648438
2022-08-19T06:22:11.781Z,75.43652344
2022-08-19T06:23:06.545Z,75.19921875
2022-08-19T06:24:08.788Z,75.3515625
2022-08-19T06:25:01.025Z,75.13671875
2022-08-19T06:26:03.297Z,75.12988281
2022-08-19T06:28:14.629Z,75.26660156
2022-08-19T06:28:15.135Z,75.26660156
2022-08-19T06:28:16.111Z,75.26660156
2022-08-19T06:28:57.000Z,75.046875
2022-08-19T06:29:51.354Z,74.703125
2022-08-19T06:30:52.917Z,74.59472656
2022-08-19T06:32:47.858Z,74.77148438
2022-08-19T06:33:43.237Z,74.69433594
2022-08-19T06:34:45.901Z,74.85449219
2022-08-19T06:35:40.244Z,74.90039063
2022-08-19T06:37:14.163Z,74.74023438
2022-08-19T06:38:51.930Z,74.08984375
2022-08-19T06:39:32.377Z,73.78222656
2022-08-19T06:40:28.941Z,73.828125
2022-08-19T06:41:29.481Z,73.92773438
2022-08-19T06:42:25.717Z,74
2022-08-19T06:43:28.144Z,74.30175781
2022-08-19T06:44:20.147Z,74.31347656
2022-08-19T06:45:19.179Z,74.35546875
2022-08-19T06:45:24.925Z,74.35546875
2022-08-19T06:45:35.472Z,74.35546875
2022-08-19T06:47:14.735Z,74.21582031
2022-08-19T06:47:23.732Z,74.21582031
2022-08-19T06:47:28.459Z,74.21582031
2022-08-19T06:48:13.262Z,74.1171875
2022-08-19T06:49:08.051Z,73.99804688
2022-08-19T06:50:07.450Z,73.91503906
2022-08-19T06:51:02.615Z,73.89941406
2022-08-19T06:51:08.740Z,73.89941406
2022-08-19T06:52:01.978Z,74.01367188
2022-08-19T06:52:57.257Z,74
2022-08-19T06:53:55.903Z,74.13671875
2022-08-19T06:54:56.341Z,74.2109375
2022-08-19T06:54:56.590Z,74.2109375
2022-08-19T06:55:50.177Z,74.17675781
2022-08-19T06:57:44.045Z,74.34375
2022-08-19T06:58:39.307Z,74.38964844
2022-08-19T06:59:40.902Z,74.28027344
2022-08-19T07:00:33.534Z,74.48828125
2022-08-19T07:02:27.032Z,74.38964844
2022-08-19T07:03:28.907Z,74.42480469
2022-08-19T07:04:26.570Z,74.39257813
2022-08-19T07:05:18.621Z,74.48046875
2022-08-19T07:07:19.859Z,74.30566406
2022-08-19T07:07:20.014Z,74.30566406
2022-08-19T07:08:11.211Z,74.05078125
2022-08-19T07:09:10.628Z,73.83691406
2022-08-19T07:10:07.366Z,73.99511719
2022-08-19T07:11:09.258Z,74.15722656
2022-08-19T07:11:10.799Z,74.15722656
2022-08-19T07:12:58.742Z,74.13964844
2022-08-19T07:14:00.697Z,73.94921875
2022-08-19T07:14:53.028Z,74.02832031
2022-08-19T07:15:52.495Z,73.9609375
2022-08-19T07:17:50.131Z,73.9375
2022-08-19T07:18:46.987Z,73.89355469
2022-08-19T07:19:39.639Z,73.70019531
2022-08-19T07:20:41.913Z,73.8984375
2022-08-19T07:21:34.225Z,73.88769531
2022-08-19T07:22:33.858Z,73.8828125
2022-08-19T07:23:30.045Z,73.86425781
2022-08-19T07:24:26.549Z,73.75390625
2022-08-19T07:25:32.058Z,73.75683594
2022-08-19T07:25:32.174Z,73.75683594
2022-08-19T07:26:27.804Z,73.86328125
2022-08-19T07:26:28.025Z,73.86328125
2022-08-19T07:27:25.453Z,73.62890625
2022-08-19T07:28:24.264Z,73.52050781
2022-08-19T07:28:24.813Z,73.52050781
2022-08-19T07:29:17.725Z,73.27539063
2022-08-19T07:30:13.623Z,73.08105469
2022-08-19T07:31:15.316Z,73.01660156
2022-08-19T07:32:11.659Z,72.81738281
2022-08-19T07:32:13.661Z,72.81738281
2022-08-19T07:33:11.225Z,72.81738281
2022-08-19T07:34:03.654Z,72.85546875
2022-08-19T07:35:07.560Z,72.86816406
2022-08-19T07:36:00.093Z,72.8203125
2022-08-19T07:37:55.712Z,72.97558594
2022-08-19T07:38:54.908Z,72.89550781
2022-08-19T07:39:50.354Z,72.97167969
2022-08-19T07:40:52.302Z,72.62695313
2022-08-19T07:43:34.944Z,71.73632813
2022-08-19T07:43:35.032Z,71.73632813
2022-08-19T07:45:11.971Z,70.69921875
2022-08-19T07:45:51.265Z,70.32714844
2022-08-19T07:46:49.272Z,70.52148438
2022-08-19T07:47:51.256Z,70.60546875
2022-08-19T07:48:42.664Z,70.71484375
2022-08-19T07:49:41.670Z,70.84472656
2022-08-19T07:50:36.871Z,71.22753906
2022-08-19T07:51:36.704Z,71.48339844
2022-08-19T07:52:29.593Z,71.28320313
2022-08-19T07:53:28.702Z,71.24902344
2022-08-19T07:54:23.983Z,71.54394531
2022-08-19T07:55:42.171Z,71.67871094
2022-08-19T07:55:42.549Z,71.67871094
2022-08-19T07:56:20.392Z,71.80078125
2022-08-19T07:57:15.430Z,71.796875
2022-08-19T07:58:14.603Z,71.64746094
2022-08-19T07:59:12.191Z,71.890625
2022-08-19T08:00:06.314Z,71.65917969
2022-08-19T08:01:05.348Z,71.78515625
2022-08-19T08:03:01.681Z,71.82128906
2022-08-19T08:03:54.043Z,71.64160156
2022-08-19T08:04:53.198Z,71.7578125
2022-08-19T08:05:47.579Z,71.67871094
2022-08-19T08:06:44.273Z,71.69726563
2022-08-19T08:07:46.202Z,71.99121094
2022-08-19T08:08:37.285Z,72.04980469
2022-08-19T08:08:44.370Z,72.04980469
2022-08-19T08:08:48.255Z,72.04980469
2022-08-19T08:09:39.471Z,71.93945313
2022-08-19T08:10:31.288Z,71.80566406
2022-08-19T08:12:34.180Z,71.65917969
2022-08-19T08:12:34.599Z,71.65917969
2022-08-19T08:13:25.442Z,71.82519531
2022-08-19T08:14:29.030Z,71.73828125
2022-08-19T08:14:29.247Z,71.73828125
2022-08-19T08:14:35.074Z,71.73828125
2022-08-19T08:15:20.066Z,71.51464844
2022-08-19T08:15:25.207Z,71.51464844
2022-08-19T08:16:17.714Z,71.61230469
2022-08-19T08:17:13.184Z,71.33691406
2022-08-19T08:18:12.138Z,71.23144531
2022-08-19T08:19:12.643Z,70.93457031
2022-08-19T08:19:18.222Z,70.93457031
2022-08-19T08:20:05.431Z,71.03710938
2022-08-19T08:21:07.787Z,71.20507813
2022-08-19T08:23:02.874Z,71.09179688
2022-08-19T08:23:56.185Z,71.1015625
2022-08-19T08:24:55.684Z,71.07519531
2022-08-19T08:25:50.957Z,70.85253906
2022-08-19T08:26:52.182Z,71.33886719
2022-08-19T08:26:57.071Z,71.33886719
2022-08-19T08:27:48.747Z,70.77148438
2022-08-19T08:27:53.854Z,70.77148438
2022-08-19T08:28:48.031Z,70.80957031
2022-08-19T08:29:42.157Z,70.66210938
2022-08-19T08:30:41.192Z,69.92089844
2022-08-19T08:31:43.000Z,70.0390625
2022-08-19T08:32:35.860Z,69.58398438
2022-08-19T08:33:35.227Z,69.31640625
2022-08-19T08:34:33.842Z,69.29882813
2022-08-19T08:35:29.307Z,69.15429688
2022-08-19T08:37:24.663Z,68.90625
2022-08-19T08:38:24.801Z,68.78125
2022-08-19T08:40:11.282Z,68.25683594
2022-08-19T08:40:13.320Z,68.25683594
2022-08-19T08:41:35.208Z,67.38867188
2022-08-19T08:42:17.635Z,67.16210938
2022-08-19T08:43:12.441Z,66.38085938
2022-08-19T08:44:17.276Z,66.96191406
2022-08-19T08:44:17.399Z,66.96191406
2022-08-19T08:45:08.271Z,66.72753906
2022-08-19T08:46:07.497Z,66.49121094
2022-08-19T08:48:01.189Z,67.1015625
2022-08-19T08:48:55.887Z,66.83398438
2022-08-19T08:49:55.437Z,67.18945313
2022-08-19T08:50:50.808Z,67.33984375
2022-08-19T08:52:44.445Z,67.36914063
2022-08-19T08:53:44.162Z,67.10742188
2022-08-19T08:54:39.493Z,67.07226563
2022-08-19T08:55:38.380Z,67.29394531
2022-08-19T08:57:36.931Z,67.47167969
2022-08-19T08:57:41.095Z,67.47167969
2022-08-19T08:58:32.926Z,67.80175781
2022-08-19T08:59:25.406Z,67.09277344
2022-08-19T09:00:25.193Z,67.40136719
2022-08-19T09:01:20.494Z,67.05371094
2022-08-19T09:02:19.901Z,66.90820313
2022-08-19T09:03:14.989Z,66.69238281
2022-08-19T09:04:17.516Z,66.45507813
2022-08-19T09:05:09.974Z,65.70605469
2022-08-19T09:05:16.423Z,65.70605469
2022-08-19T09:06:11.858Z,66.07910156
2022-08-19T09:08:07.574Z,64.78027344
2022-08-19T09:08:59.798Z,64.38867188
2022-08-19T09:10:02.103Z,64.44824219
2022-08-19T09:10:55.174Z,64.484375
2022-08-19T09:11:53.961Z,64.66796875
2022-08-19T09:12:49.220Z,64.92675781
2022-08-19T09:13:45.845Z,64.61425781
2022-08-19T09:14:51.761Z,64.5546875
2022-08-19T09:14:52.644Z,64.5546875
2022-08-19T09:15:42.045Z,64.41601563
2022-08-19T09:17:36.548Z,64.69726563
2022-08-19T09:18:35.810Z,64.73144531
2022-08-19T09:19:33.032Z,64.80078125
2022-08-19T09:20:28.230Z,64.78808594
2022-08-19T09:22:25.570Z,64.86523438
2022-08-19T09:22:27.330Z,64.86523438
2022-08-19T09:23:26.966Z,64.94824219
2022-08-19T09:23:27.032Z,64.94824219
2022-08-19T09:23:37.519Z,64.64648438
2022-08-19T09:24:32.789Z,63.79394531
2022-08-19T09:25:29.489Z,63.82128906
2022-08-19T09:26:48.614Z,63.59765625
2022-08-19T09:26:52.378Z,63.59765625
2022-08-19T09:26:52.587Z,63.59765625
2022-08-19T09:27:22.484Z,63.31445313
2022-08-19T09:27:42.264Z,63.31445313
2022-08-19T09:27:42.295Z,63.31445313
2022-08-19T09:28:26.900Z,63.22949219
2022-08-19T09:29:17.725Z,63.06542969
2022-08-19T09:30:14.966Z,62.61230469
2022-08-19T09:31:14.363Z,62.43359375
2022-08-19T09:33:08.979Z,62.75585938
2022-08-19T09:34:04.410Z,63.04589844
2022-08-19T09:35:03.826Z,63.37109375
2022-08-19T09:35:08.952Z,63.37109375
2022-08-19T09:36:01.900Z,63.015625
2022-08-19T09:36:08.418Z,63.015625
2022-08-19T09:37:47.084Z,62.49511719
2022-08-19T09:38:26.799Z,61.44921875
2022-08-19T09:39:24.702Z,60.68652344
2022-08-19T09:40:22.797Z,60.87207031
2022-08-19T09:41:22.567Z,60.59570313
2022-08-19T09:42:29.870Z,60.90625
2022-08-19T09:42:30.120Z,60.90625
2022-08-19T09:43:27.793Z,60.83789063
2022-08-19T09:43:32.993Z,60.83789063
2022-08-19T09:43:33.229Z,60.83789063
2022-08-19T09:44:18.118Z,60.60058594
2022-08-19T09:45:13.046Z,58.87695313
2022-08-19T09:46:15.756Z,59.35058594
2022-08-19T09:48:09.815Z,60.17578125
2022-08-19T09:49:06.246Z,60.26953125
2022-08-19T09:50:05.906Z,60.61914063
2022-08-19T09:51:01.243Z,60.65429688
2022-08-19T09:52:01.302Z,59.93066406
2022-08-19T09:52:57.862Z,60.50976563
2022-08-19T09:53:56.746Z,60.90625
2022-08-19T09:54:52.143Z,61.20507813
2022-08-19T09:55:52.481Z,60.73046875
2022-08-19T09:57:48.420Z,60.31152344
2022-08-19T09:58:44.552Z,60.16210938
2022-08-19T09:59:41.856Z,59.69824219
2022-08-19T10:00:41.974Z,59.375
2022-08-19T10:02:37.820Z,59.65527344
2022-08-19T10:03:33.396Z,60.16992188
2022-08-19T10:04:31.264Z,59.96484375
2022-08-19T10:05:31.546Z,59.45507813
2022-08-19T10:06:40.660Z,59.62695313
2022-08-19T10:06:45.822Z,59.62695313
2022-08-19T10:06:46.518Z,59.62695313
2022-08-19T10:07:36.365Z,59.86425781
2022-08-19T10:07:36.488Z,59.86425781
2022-08-19T10:08:27.395Z,59.52539063
2022-08-19T10:09:34.042Z,59.11425781
2022-08-19T10:09:34.525Z,59.11425781
2022-08-19T10:10:21.332Z,59.62988281
2022-08-19T10:11:28.709Z,59.25683594
2022-08-19T10:11:28.747Z,59.25683594
2022-08-19T10:11:39.482Z,59.25683594
2022-08-19T10:13:15.481Z,59.07910156
2022-08-19T10:14:15.181Z,58.65039063
2022-08-19T10:15:10.427Z,59.00683594
2022-08-19T10:16:08.349Z,59.21191406
2022-08-19T10:17:19.125Z,59.23144531
2022-08-19T10:17:19.246Z,59.23144531
2022-08-19T10:17:21.406Z,59.23144531
2022-08-19T10:18:07.455Z,59.47753906
2022-08-19T10:19:03.683Z,58.74023438
2022-08-19T10:20:03.243Z,58.91894531
2022-08-19T10:21:41.078Z,59.0234375
2022-08-19T10:22:20.618Z,59.3203125
2022-08-19T10:23:18.364Z,59.00976563
2022-08-19T10:24:18.685Z,59.40527344